sensor_id;sensor_type;location;lat;lon;timestamp;temperature;humidity
16744;DHT22;71724;-33.900;151.182;2023-09-08T00:00:28;15.10;81.40
16744;DHT22;71724;-33.900;151.182;2023-09-08T00:02:58;15.10;81.00
16744;DHT22;71724;-33.900;151.182;2023-09-08T00:05:26;15.00;81.10
16744;DHT22;71724;-33.900;151.182;2023-09-08T00:07:53;15.00;81.30
16744;DHT22;71724;-33.900;151.182;2023-09-08T00:10:20;15.00;81.20
16744;DHT22;71724;-33.900;151.182;2023-09-08T00:12:48;15.00;81.50
16744;DHT22;71724;-33.900;151.182;2023-09-08T00:15:15;15.00;80.70
16744;DHT22;71724;-33.900;151.182;2023-09-08T00:17:42;14.90;80.80
16744;DHT22;71724;-33.900;151.182;2023-09-08T00:20:10;14.90;80.90
16744;DHT22;71724;-33.900;151.182;2023-09-08T00:22:38;14.90;80.90
16744;DHT22;71724;-33.900;151.182;2023-09-08T00:25:06;14.90;81.30
16744;DHT22;71724;-33.900;151.182;2023-09-08T00:27:34;14.90;81.50
16744;DHT22;71724;-33.900;151.182;2023-09-08T00:30:05;14.90;81.70
16744;DHT22;71724;-33.900;151.182;2023-09-08T00:32:33;14.90;81.20
16744;DHT22;71724;-33.900;151.182;2023-09-08T00:35:00;14.80;81.10
16744;DHT22;71724;-33.900;151.182;2023-09-08T00:37:27;14.80;81.40
16744;DHT22;71724;-33.900;151.182;2023-09-08T00:39:55;14.90;81.60
16744;DHT22;71724;-33.900;151.182;2023-09-08T00:42:22;14.90;81.40
16744;DHT22;71724;-33.900;151.182;2023-09-08T00:44:50;14.90;81.50
16744;DHT22;71724;-33.900;151.182;2023-09-08T00:47:18;14.90;81.70
16744;DHT22;71724;-33.900;151.182;2023-09-08T00:49:45;14.80;81.60
16744;DHT22;71724;-33.900;151.182;2023-09-08T00:52:12;14.70;82.20
16744;DHT22;71724;-33.900;151.182;2023-09-08T00:54:40;14.70;82.50
16744;DHT22;71724;-33.900;151.182;2023-09-08T00:57:07;14.70;82.20
16744;DHT22;71724;-33.900;151.182;2023-09-08T00:59:36;14.70;82.10
16744;DHT22;71724;-33.900;151.182;2023-09-08T01:02:04;14.60;82.20
16744;DHT22;71724;-33.900;151.182;2023-09-08T01:04:32;14.70;82.80
16744;DHT22;71724;-33.900;151.182;2023-09-08T01:07:00;14.50;82.20
16744;DHT22;71724;-33.900;151.182;2023-09-08T01:09:28;14.60;83.40
16744;DHT22;71724;-33.900;151.182;2023-09-08T01:11:56;14.70;83.10
16744;DHT22;71724;-33.900;151.182;2023-09-08T01:14:27;14.70;82.80
16744;DHT22;71724;-33.900;151.182;2023-09-08T01:16:55;14.60;83.10
16744;DHT22;71724;-33.900;151.182;2023-09-08T01:19:22;14.70;82.90
16744;DHT22;71724;-33.900;151.182;2023-09-08T01:22:40;14.70;82.90
16744;DHT22;71724;-33.900;151.182;2023-09-08T01:27:45;14.50;82.60
16744;DHT22;71724;-33.900;151.182;2023-09-08T01:30:13;14.50;82.50
16744;DHT22;71724;-33.900;151.182;2023-09-08T01:32:42;14.50;82.70
16744;DHT22;71724;-33.900;151.182;2023-09-08T01:35:11;14.50;82.90
16744;DHT22;71724;-33.900;151.182;2023-09-08T01:37:46;14.60;83.00
16744;DHT22;71724;-33.900;151.182;2023-09-08T01:40:14;14.60;82.80
16744;DHT22;71724;-33.900;151.182;2023-09-08T01:42:42;14.70;83.00
16744;DHT22;71724;-33.900;151.182;2023-09-08T01:45:09;14.70;83.00
16744;DHT22;71724;-33.900;151.182;2023-09-08T01:47:37;14.70;82.60
16744;DHT22;71724;-33.900;151.182;2023-09-08T01:50:06;14.70;82.60
16744;DHT22;71724;-33.900;151.182;2023-09-08T01:52:33;14.80;82.20
16744;DHT22;71724;-33.900;151.182;2023-09-08T01:55:01;14.70;81.90
16744;DHT22;71724;-33.900;151.182;2023-09-08T01:57:28;14.80;81.50
16744;DHT22;71724;-33.900;151.182;2023-09-08T01:59:55;14.80;81.00
16744;DHT22;71724;-33.900;151.182;2023-09-08T02:02:23;14.80;81.10
16744;DHT22;71724;-33.900;151.182;2023-09-08T02:04:50;14.80;80.90
16744;DHT22;71724;-33.900;151.182;2023-09-08T02:07:17;14.90;80.70
16744;DHT22;71724;-33.900;151.182;2023-09-08T02:09:45;14.90;79.80
16744;DHT22;71724;-33.900;151.182;2023-09-08T02:12:12;14.90;79.30
16744;DHT22;71724;-33.900;151.182;2023-09-08T02:14:40;14.80;78.70
16744;DHT22;71724;-33.900;151.182;2023-09-08T02:17:07;14.80;78.80
16744;DHT22;71724;-33.900;151.182;2023-09-08T02:19:34;14.80;78.30
16744;DHT22;71724;-33.900;151.182;2023-09-08T02:22:02;14.80;78.60
16744;DHT22;71724;-33.900;151.182;2023-09-08T02:24:29;14.80;78.70
16744;DHT22;71724;-33.900;151.182;2023-09-08T02:26:57;14.80;78.70
16744;DHT22;71724;-33.900;151.182;2023-09-08T02:29:24;14.80;79.10
16744;DHT22;71724;-33.900;151.182;2023-09-08T02:31:52;14.90;79.20
16744;DHT22;71724;-33.900;151.182;2023-09-08T02:34:19;14.80;79.00
16744;DHT22;71724;-33.900;151.182;2023-09-08T02:36:46;14.90;78.50
16744;DHT22;71724;-33.900;151.182;2023-09-08T02:39:17;14.90;78.20
16744;DHT22;71724;-33.900;151.182;2023-09-08T02:41:44;14.90;78.10
16744;DHT22;71724;-33.900;151.182;2023-09-08T02:44:12;15.00;77.90
16744;DHT22;71724;-33.900;151.182;2023-09-08T02:46:39;15.00;77.30
16744;DHT22;71724;-33.900;151.182;2023-09-08T02:49:07;15.10;77.20
16744;DHT22;71724;-33.900;151.182;2023-09-08T02:51:34;15.10;77.00
16744;DHT22;71724;-33.900;151.182;2023-09-08T02:54:01;15.20;76.20
16744;DHT22;71724;-33.900;151.182;2023-09-08T02:56:29;15.20;76.00
16744;DHT22;71724;-33.900;151.182;2023-09-08T02:58:56;15.20;75.90
16744;DHT22;71724;-33.900;151.182;2023-09-08T03:01:24;15.20;74.60
16744;DHT22;71724;-33.900;151.182;2023-09-08T03:03:51;15.20;74.30
16744;DHT22;71724;-33.900;151.182;2023-09-08T03:06:19;15.20;73.40
16744;DHT22;71724;-33.900;151.182;2023-09-08T03:08:47;15.20;73.60
16744;DHT22;71724;-33.900;151.182;2023-09-08T03:11:15;15.20;73.30
16744;DHT22;71724;-33.900;151.182;2023-09-08T03:13:42;15.20;72.80
16744;DHT22;71724;-33.900;151.182;2023-09-08T03:16:10;15.30;72.50
16744;DHT22;71724;-33.900;151.182;2023-09-08T03:18:38;15.40;71.90
16744;DHT22;71724;-33.900;151.182;2023-09-08T03:21:06;15.40;71.60
16744;DHT22;71724;-33.900;151.182;2023-09-08T03:23:41;15.40;71.00
16744;DHT22;71724;-33.900;151.182;2023-09-08T03:26:10;15.50;71.10
16744;DHT22;71724;-33.900;151.182;2023-09-08T03:28:38;15.50;71.30
16744;DHT22;71724;-33.900;151.182;2023-09-08T03:31:05;15.70;71.20
16744;DHT22;71724;-33.900;151.182;2023-09-08T03:33:33;15.80;69.70
16744;DHT22;71724;-33.900;151.182;2023-09-08T03:36:01;15.80;68.90
16744;DHT22;71724;-33.900;151.182;2023-09-08T03:38:28;15.90;68.20
16744;DHT22;71724;-33.900;151.182;2023-09-08T03:40:56;15.90;67.30
16744;DHT22;71724;-33.900;151.182;2023-09-08T03:43:23;16.00;67.30
16744;DHT22;71724;-33.900;151.182;2023-09-08T03:45:51;16.10;66.20
16744;DHT22;71724;-33.900;151.182;2023-09-08T03:48:18;16.20;65.70
16744;DHT22;71724;-33.900;151.182;2023-09-08T03:50:45;16.40;64.40
16744;DHT22;71724;-33.900;151.182;2023-09-08T03:53:13;16.50;64.00
16744;DHT22;71724;-33.900;151.182;2023-09-08T03:55:40;16.60;62.30
16744;DHT22;71724;-33.900;151.182;2023-09-08T03:58:08;16.70;61.60
16744;DHT22;71724;-33.900;151.182;2023-09-08T04:00:36;16.90;60.10
16744;DHT22;71724;-33.900;151.182;2023-09-08T04:03:03;17.00;58.00
16744;DHT22;71724;-33.900;151.182;2023-09-08T04:05:31;17.20;57.30
16744;DHT22;71724;-33.900;151.182;2023-09-08T04:07:58;17.20;55.00
16744;DHT22;71724;-33.900;151.182;2023-09-08T04:10:26;17.30;55.60
16744;DHT22;71724;-33.900;151.182;2023-09-08T04:12:53;17.50;53.40
16744;DHT22;71724;-33.900;151.182;2023-09-08T04:15:20;17.70;51.40
16744;DHT22;71724;-33.900;151.182;2023-09-08T04:17:48;17.80;51.00
16744;DHT22;71724;-33.900;151.182;2023-09-08T04:20:15;17.90;44.30
16744;DHT22;71724;-33.900;151.182;2023-09-08T04:22:43;18.00;42.40
16744;DHT22;71724;-33.900;151.182;2023-09-08T04:25:11;18.20;40.60
16744;DHT22;71724;-33.900;151.182;2023-09-08T04:27:38;18.20;37.90
16744;DHT22;71724;-33.900;151.182;2023-09-08T04:30:06;18.30;38.90
16744;DHT22;71724;-33.900;151.182;2023-09-08T04:32:34;18.40;37.80
16744;DHT22;71724;-33.900;151.182;2023-09-08T04:35:01;18.50;39.70
16744;DHT22;71724;-33.900;151.182;2023-09-08T04:37:28;18.60;39.60
16744;DHT22;71724;-33.900;151.182;2023-09-08T04:39:57;18.70;38.40
16744;DHT22;71724;-33.900;151.182;2023-09-08T04:42:24;18.70;36.50
16744;DHT22;71724;-33.900;151.182;2023-09-08T04:44:52;18.70;34.90
16744;DHT22;71724;-33.900;151.182;2023-09-08T04:47:19;18.70;35.20
16744;DHT22;71724;-33.900;151.182;2023-09-08T04:49:47;18.80;34.40
16744;DHT22;71724;-33.900;151.182;2023-09-08T04:52:16;18.90;36.00
16744;DHT22;71724;-33.900;151.182;2023-09-08T04:54:43;18.90;32.20
16744;DHT22;71724;-33.900;151.182;2023-09-08T04:57:11;18.90;32.40
16744;DHT22;71724;-33.900;151.182;2023-09-08T04:59:39;18.90;31.40
16744;DHT22;71724;-33.900;151.182;2023-09-08T05:02:06;19.00;33.20
16744;DHT22;71724;-33.900;151.182;2023-09-08T05:04:34;19.00;33.00
16744;DHT22;71724;-33.900;151.182;2023-09-08T05:07:01;19.10;33.10
16744;DHT22;71724;-33.900;151.182;2023-09-08T05:09:28;19.20;32.40
16744;DHT22;71724;-33.900;151.182;2023-09-08T05:11:56;19.20;33.20
16744;DHT22;71724;-33.900;151.182;2023-09-08T05:14:28;19.20;31.00
16744;DHT22;71724;-33.900;151.182;2023-09-08T05:16:56;19.30;31.70
16744;DHT22;71724;-33.900;151.182;2023-09-08T05:19:23;19.30;30.20
16744;DHT22;71724;-33.900;151.182;2023-09-08T05:21:55;19.30;30.80
16744;DHT22;71724;-33.900;151.182;2023-09-08T05:24:23;19.40;31.90
16744;DHT22;71724;-33.900;151.182;2023-09-08T05:26:52;19.40;29.90
16744;DHT22;71724;-33.900;151.182;2023-09-08T05:29:19;19.50;29.20
16744;DHT22;71724;-33.900;151.182;2023-09-08T05:31:46;19.40;31.90
16744;DHT22;71724;-33.900;151.182;2023-09-08T05:34:14;19.40;31.50
16744;DHT22;71724;-33.900;151.182;2023-09-08T05:36:41;19.40;29.40
16744;DHT22;71724;-33.900;151.182;2023-09-08T05:39:09;19.40;31.90
16744;DHT22;71724;-33.900;151.182;2023-09-08T05:41:37;19.40;31.60
16744;DHT22;71724;-33.900;151.182;2023-09-08T05:44:04;19.30;31.30
16744;DHT22;71724;-33.900;151.182;2023-09-08T05:46:32;19.30;31.30
16744;DHT22;71724;-33.900;151.182;2023-09-08T05:48:59;19.30;30.50
16744;DHT22;71724;-33.900;151.182;2023-09-08T05:51:26;19.20;30.90
16744;DHT22;71724;-33.900;151.182;2023-09-08T05:53:54;19.20;30.50
16744;DHT22;71724;-33.900;151.182;2023-09-08T05:56:24;19.20;31.70
16744;DHT22;71724;-33.900;151.182;2023-09-08T05:58:51;19.10;32.20
16744;DHT22;71724;-33.900;151.182;2023-09-08T06:01:19;19.00;32.30
16744;DHT22;71724;-33.900;151.182;2023-09-08T06:03:46;19.00;32.10
16744;DHT22;71724;-33.900;151.182;2023-09-08T06:06:13;18.90;31.90
16744;DHT22;71724;-33.900;151.182;2023-09-08T06:08:41;18.80;34.20
16744;DHT22;71724;-33.900;151.182;2023-09-08T06:11:08;18.80;31.90
16744;DHT22;71724;-33.900;151.182;2023-09-08T06:13:35;18.70;33.50
16744;DHT22;71724;-33.900;151.182;2023-09-08T06:16:03;18.60;34.60
16744;DHT22;71724;-33.900;151.182;2023-09-08T06:18:30;18.50;34.50
16744;DHT22;71724;-33.900;151.182;2023-09-08T06:20:58;18.50;34.50
16744;DHT22;71724;-33.900;151.182;2023-09-08T06:23:25;18.40;34.90
16744;DHT22;71724;-33.900;151.182;2023-09-08T06:25:56;18.30;35.00
16744;DHT22;71724;-33.900;151.182;2023-09-08T06:28:30;18.30;35.30
16744;DHT22;71724;-33.900;151.182;2023-09-08T06:30:57;18.20;35.10
16744;DHT22;71724;-33.900;151.182;2023-09-08T06:33:25;18.20;36.80
16744;DHT22;71724;-33.900;151.182;2023-09-08T06:35:52;18.20;35.70
16744;DHT22;71724;-33.900;151.182;2023-09-08T06:38:20;18.20;35.40
16744;DHT22;71724;-33.900;151.182;2023-09-08T06:40:47;18.10;35.50
16744;DHT22;71724;-33.900;151.182;2023-09-08T06:43:16;18.00;34.60
16744;DHT22;71724;-33.900;151.182;2023-09-08T06:45:46;18.00;35.40
16744;DHT22;71724;-33.900;151.182;2023-09-08T06:48:14;17.90;36.70
16744;DHT22;71724;-33.900;151.182;2023-09-08T06:50:41;17.80;37.00
16744;DHT22;71724;-33.900;151.182;2023-09-08T06:53:09;17.80;37.00
16744;DHT22;71724;-33.900;151.182;2023-09-08T06:55:37;17.80;38.00
16744;DHT22;71724;-33.900;151.182;2023-09-08T06:58:04;17.70;38.00
16744;DHT22;71724;-33.900;151.182;2023-09-08T07:00:32;17.70;37.80
16744;DHT22;71724;-33.900;151.182;2023-09-08T07:02:59;17.70;39.00
16744;DHT22;71724;-33.900;151.182;2023-09-08T07:05:28;17.70;39.00
16744;DHT22;71724;-33.900;151.182;2023-09-08T07:07:56;17.70;39.60
16744;DHT22;71724;-33.900;151.182;2023-09-08T07:10:23;17.60;40.10
16744;DHT22;71724;-33.900;151.182;2023-09-08T07:12:52;17.60;40.10
16744;DHT22;71724;-33.900;151.182;2023-09-08T07:15:19;17.40;39.20
16744;DHT22;71724;-33.900;151.182;2023-09-08T07:17:47;17.30;40.00
16744;DHT22;71724;-33.900;151.182;2023-09-08T07:20:14;17.20;40.40
16744;DHT22;71724;-33.900;151.182;2023-09-08T07:22:41;17.10;41.40
16744;DHT22;71724;-33.900;151.182;2023-09-08T07:25:09;17.10;42.20
16744;DHT22;71724;-33.900;151.182;2023-09-08T07:27:36;17.00;42.10
16744;DHT22;71724;-33.900;151.182;2023-09-08T07:30:04;16.90;41.60
16744;DHT22;71724;-33.900;151.182;2023-09-08T07:32:33;16.90;42.70
16744;DHT22;71724;-33.900;151.182;2023-09-08T07:35:01;16.80;41.50
16744;DHT22;71724;-33.900;151.182;2023-09-08T07:37:28;16.70;42.70
16744;DHT22;71724;-33.900;151.182;2023-09-08T07:39:55;16.70;43.00
16744;DHT22;71724;-33.900;151.182;2023-09-08T07:42:25;16.60;42.50
16744;DHT22;71724;-33.900;151.182;2023-09-08T07:44:53;16.50;43.60
16744;DHT22;71724;-33.900;151.182;2023-09-08T07:47:21;16.50;43.50
16744;DHT22;71724;-33.900;151.182;2023-09-08T07:49:49;16.50;43.80
16744;DHT22;71724;-33.900;151.182;2023-09-08T07:52:16;16.40;44.50
16744;DHT22;71724;-33.900;151.182;2023-09-08T07:54:44;16.30;44.00
16744;DHT22;71724;-33.900;151.182;2023-09-08T07:57:11;16.30;43.80
16744;DHT22;71724;-33.900;151.182;2023-09-08T07:59:38;16.30;44.40
16744;DHT22;71724;-33.900;151.182;2023-09-08T08:02:06;16.30;44.30
16744;DHT22;71724;-33.900;151.182;2023-09-08T08:04:33;16.20;44.40
16744;DHT22;71724;-33.900;151.182;2023-09-08T08:07:02;16.20;44.70
16744;DHT22;71724;-33.900;151.182;2023-09-08T08:09:29;16.00;44.70
16744;DHT22;71724;-33.900;151.182;2023-09-08T08:11:56;16.00;44.90
16744;DHT22;71724;-33.900;151.182;2023-09-08T08:14:24;15.90;45.30
16744;DHT22;71724;-33.900;151.182;2023-09-08T08:16:51;16.00;45.30
16744;DHT22;71724;-33.900;151.182;2023-09-08T08:19:19;15.80;45.70
16744;DHT22;71724;-33.900;151.182;2023-09-08T08:21:46;15.80;46.10
16744;DHT22;71724;-33.900;151.182;2023-09-08T08:24:14;15.70;46.80
16744;DHT22;71724;-33.900;151.182;2023-09-08T08:26:41;15.80;46.30
16744;DHT22;71724;-33.900;151.182;2023-09-08T08:29:09;15.70;46.00
16744;DHT22;71724;-33.900;151.182;2023-09-08T08:31:36;15.70;46.70
16744;DHT22;71724;-33.900;151.182;2023-09-08T08:34:03;15.60;46.40
16744;DHT22;71724;-33.900;151.182;2023-09-08T08:36:31;15.50;46.70
16744;DHT22;71724;-33.900;151.182;2023-09-08T08:38:59;15.50;46.80
16744;DHT22;71724;-33.900;151.182;2023-09-08T08:41:26;15.50;46.30
16744;DHT22;71724;-33.900;151.182;2023-09-08T08:43:56;15.50;46.10
16744;DHT22;71724;-33.900;151.182;2023-09-08T08:46:24;15.30;46.00
16744;DHT22;71724;-33.900;151.182;2023-09-08T08:48:53;15.30;45.50
16744;DHT22;71724;-33.900;151.182;2023-09-08T08:51:23;15.30;46.20
16744;DHT22;71724;-33.900;151.182;2023-09-08T08:53:51;15.30;46.70
16744;DHT22;71724;-33.900;151.182;2023-09-08T08:56:18;15.20;47.70
16744;DHT22;71724;-33.900;151.182;2023-09-08T08:58:46;15.20;47.10
16744;DHT22;71724;-33.900;151.182;2023-09-08T09:01:16;15.20;45.70
16744;DHT22;71724;-33.900;151.182;2023-09-08T09:03:49;15.20;45.80
16744;DHT22;71724;-33.900;151.182;2023-09-08T09:06:17;15.10;46.40
16744;DHT22;71724;-33.900;151.182;2023-09-08T09:08:45;15.10;46.50
16744;DHT22;71724;-33.900;151.182;2023-09-08T09:11:13;15.10;46.10
16744;DHT22;71724;-33.900;151.182;2023-09-08T09:13:41;15.00;46.10
16744;DHT22;71724;-33.900;151.182;2023-09-08T09:16:08;15.00;46.10
16744;DHT22;71724;-33.900;151.182;2023-09-08T09:18:56;15.00;47.10
16744;DHT22;71724;-33.900;151.182;2023-09-08T09:21:24;15.00;46.70
16744;DHT22;71724;-33.900;151.182;2023-09-08T09:23:52;14.90;46.80
16744;DHT22;71724;-33.900;151.182;2023-09-08T09:26:26;14.90;47.20
16744;DHT22;71724;-33.900;151.182;2023-09-08T09:28:53;14.80;47.60
16744;DHT22;71724;-33.900;151.182;2023-09-08T09:31:25;14.80;47.60
16744;DHT22;71724;-33.900;151.182;2023-09-08T09:34:05;14.80;47.30
16744;DHT22;71724;-33.900;151.182;2023-09-08T09:36:33;14.70;48.40
16744;DHT22;71724;-33.900;151.182;2023-09-08T09:39:01;14.80;48.40
16744;DHT22;71724;-33.900;151.182;2023-09-08T09:41:31;14.70;49.00
16744;DHT22;71724;-33.900;151.182;2023-09-08T09:43:58;14.70;48.90
16744;DHT22;71724;-33.900;151.182;2023-09-08T09:46:28;14.70;49.30
16744;DHT22;71724;-33.900;151.182;2023-09-08T09:48:55;14.70;49.40
16744;DHT22;71724;-33.900;151.182;2023-09-08T09:51:23;14.70;50.20
16744;DHT22;71724;-33.900;151.182;2023-09-08T09:53:51;14.70;49.60
16744;DHT22;71724;-33.900;151.182;2023-09-08T09:56:19;14.70;50.10
16744;DHT22;71724;-33.900;151.182;2023-09-08T09:58:47;14.70;51.60
16744;DHT22;71724;-33.900;151.182;2023-09-08T10:01:18;14.70;50.50
16744;DHT22;71724;-33.900;151.182;2023-09-08T10:03:46;14.70;51.40
16744;DHT22;71724;-33.900;151.182;2023-09-08T10:06:15;14.70;51.20
16744;DHT22;71724;-33.900;151.182;2023-09-08T10:08:43;14.70;51.60
16744;DHT22;71724;-33.900;151.182;2023-09-08T10:11:12;14.70;51.90
16744;DHT22;71724;-33.900;151.182;2023-09-08T10:13:46;14.60;50.80
16744;DHT22;71724;-33.900;151.182;2023-09-08T10:16:20;14.60;50.80
16744;DHT22;71724;-33.900;151.182;2023-09-08T10:18:50;14.50;50.10
16744;DHT22;71724;-33.900;151.182;2023-09-08T10:21:19;14.50;50.40
16744;DHT22;71724;-33.900;151.182;2023-09-08T10:24:04;14.50;50.70
16744;DHT22;71724;-33.900;151.182;2023-09-08T10:26:36;14.40;50.20
16744;DHT22;71724;-33.900;151.182;2023-09-08T10:29:07;14.40;51.90
16744;DHT22;71724;-33.900;151.182;2023-09-08T10:31:35;14.40;53.80
16744;DHT22;71724;-33.900;151.182;2023-09-08T10:34:03;14.40;51.70
16744;DHT22;71724;-33.900;151.182;2023-09-08T10:36:31;14.40;51.40
16744;DHT22;71724;-33.900;151.182;2023-09-08T10:45:15;14.20;51.60
16744;DHT22;71724;-33.900;151.182;2023-09-08T10:50:17;14.20;51.20
16744;DHT22;71724;-33.900;151.182;2023-09-08T10:53:03;14.20;51.40
16744;DHT22;71724;-33.900;151.182;2023-09-08T10:55:40;14.20;50.70
16744;DHT22;71724;-33.900;151.182;2023-09-08T10:58:16;14.20;52.10
16744;DHT22;71724;-33.900;151.182;2023-09-08T11:00:46;14.10;51.50
16744;DHT22;71724;-33.900;151.182;2023-09-08T11:03:15;14.10;50.90
16744;DHT22;71724;-33.900;151.182;2023-09-08T11:05:53;14.10;51.90
16744;DHT22;71724;-33.900;151.182;2023-09-08T11:08:21;14.10;51.60
16744;DHT22;71724;-33.900;151.182;2023-09-08T11:10:49;14.00;52.20
16744;DHT22;71724;-33.900;151.182;2023-09-08T11:13:17;14.10;51.30
16744;DHT22;71724;-33.900;151.182;2023-09-08T11:15:44;14.00;51.50
16744;DHT22;71724;-33.900;151.182;2023-09-08T11:18:12;13.90;51.50
16744;DHT22;71724;-33.900;151.182;2023-09-08T11:20:39;13.90;52.20
16744;DHT22;71724;-33.900;151.182;2023-09-08T11:23:07;13.90;52.40
16744;DHT22;71724;-33.900;151.182;2023-09-08T11:25:35;13.90;52.70
16744;DHT22;71724;-33.900;151.182;2023-09-08T11:28:02;13.90;52.80
16744;DHT22;71724;-33.900;151.182;2023-09-08T11:30:30;13.90;52.80
16744;DHT22;71724;-33.900;151.182;2023-09-08T11:32:57;13.90;52.90
16744;DHT22;71724;-33.900;151.182;2023-09-08T11:35:27;13.80;52.80
16744;DHT22;71724;-33.900;151.182;2023-09-08T11:37:59;13.90;55.20
16744;DHT22;71724;-33.900;151.182;2023-09-08T11:40:27;13.90;54.00
16744;DHT22;71724;-33.900;151.182;2023-09-08T11:42:55;13.80;53.70
16744;DHT22;71724;-33.900;151.182;2023-09-08T11:45:22;13.90;54.30
16744;DHT22;71724;-33.900;151.182;2023-09-08T11:47:53;13.90;55.40
16744;DHT22;71724;-33.900;151.182;2023-09-08T11:50:22;13.90;55.10
16744;DHT22;71724;-33.900;151.182;2023-09-08T11:52:51;13.90;53.50
16744;DHT22;71724;-33.900;151.182;2023-09-08T11:55:20;13.90;53.60
16744;DHT22;71724;-33.900;151.182;2023-09-08T11:57:55;13.80;53.40
16744;DHT22;71724;-33.900;151.182;2023-09-08T12:00:30;13.80;53.90
16744;DHT22;71724;-33.900;151.182;2023-09-08T12:03:19;13.80;54.10
16744;DHT22;71724;-33.900;151.182;2023-09-08T12:05:51;13.80;53.70
16744;DHT22;71724;-33.900;151.182;2023-09-08T12:08:19;13.80;53.60
16744;DHT22;71724;-33.900;151.182;2023-09-08T12:10:46;13.80;53.70
16744;DHT22;71724;-33.900;151.182;2023-09-08T12:13:23;13.80;55.00
16744;DHT22;71724;-33.900;151.182;2023-09-08T12:15:52;13.70;54.90
16744;DHT22;71724;-33.900;151.182;2023-09-08T12:18:38;13.70;54.00
16744;DHT22;71724;-33.900;151.182;2023-09-08T12:21:09;13.70;54.30
16744;DHT22;71724;-33.900;151.182;2023-09-08T12:23:47;13.70;55.60
16744;DHT22;71724;-33.900;151.182;2023-09-08T12:26:18;13.80;54.50
16744;DHT22;71724;-33.900;151.182;2023-09-08T12:28:47;13.70;55.40
16744;DHT22;71724;-33.900;151.182;2023-09-08T12:31:15;13.80;55.00
16744;DHT22;71724;-33.900;151.182;2023-09-08T12:33:45;13.70;54.70
16744;DHT22;71724;-33.900;151.182;2023-09-08T12:36:17;13.70;54.80
16744;DHT22;71724;-33.900;151.182;2023-09-08T12:38:52;13.70;54.50
16744;DHT22;71724;-33.900;151.182;2023-09-08T12:41:20;13.70;55.20
16744;DHT22;71724;-33.900;151.182;2023-09-08T12:43:47;13.70;55.00
16744;DHT22;71724;-33.900;151.182;2023-09-08T12:46:17;13.80;55.70
16744;DHT22;71724;-33.900;151.182;2023-09-08T12:48:45;13.80;55.20
16744;DHT22;71724;-33.900;151.182;2023-09-08T12:51:12;13.80;56.40
16744;DHT22;71724;-33.900;151.182;2023-09-08T12:53:40;13.80;54.50
16744;DHT22;71724;-33.900;151.182;2023-09-08T12:56:07;13.70;54.90
16744;DHT22;71724;-33.900;151.182;2023-09-08T12:58:35;13.70;56.40
16744;DHT22;71724;-33.900;151.182;2023-09-08T13:01:02;13.70;54.80
16744;DHT22;71724;-33.900;151.182;2023-09-08T13:03:34;13.70;56.60
16744;DHT22;71724;-33.900;151.182;2023-09-08T13:06:01;13.70;57.60
16744;DHT22;71724;-33.900;151.182;2023-09-08T13:08:29;13.80;57.00
16744;DHT22;71724;-33.900;151.182;2023-09-08T13:10:57;13.80;57.30
16744;DHT22;71724;-33.900;151.182;2023-09-08T13:13:25;13.80;58.30
16744;DHT22;71724;-33.900;151.182;2023-09-08T13:15:54;13.90;58.70
16744;DHT22;71724;-33.900;151.182;2023-09-08T13:18:21;14.00;59.00
16744;DHT22;71724;-33.900;151.182;2023-09-08T13:20:49;14.00;59.30
16744;DHT22;71724;-33.900;151.182;2023-09-08T13:23:16;14.10;59.60
16744;DHT22;71724;-33.900;151.182;2023-09-08T13:25:44;14.10;59.60
16744;DHT22;71724;-33.900;151.182;2023-09-08T13:28:12;14.10;57.00
16744;DHT22;71724;-33.900;151.182;2023-09-08T13:30:40;14.10;59.50
16744;DHT22;71724;-33.900;151.182;2023-09-08T13:33:07;14.10;58.50
16744;DHT22;71724;-33.900;151.182;2023-09-08T13:35:34;14.00;58.10
16744;DHT22;71724;-33.900;151.182;2023-09-08T13:38:02;14.00;56.80
16744;DHT22;71724;-33.900;151.182;2023-09-08T13:40:29;13.90;56.80
16744;DHT22;71724;-33.900;151.182;2023-09-08T13:42:57;14.00;57.70
16744;DHT22;71724;-33.900;151.182;2023-09-08T13:45:24;13.90;57.00
16744;DHT22;71724;-33.900;151.182;2023-09-08T13:47:51;14.00;57.80
16744;DHT22;71724;-33.900;151.182;2023-09-08T13:50:19;14.00;58.80
16744;DHT22;71724;-33.900;151.182;2023-09-08T13:52:46;14.00;58.50
16744;DHT22;71724;-33.900;151.182;2023-09-08T13:55:14;13.90;55.60
16744;DHT22;71724;-33.900;151.182;2023-09-08T13:57:41;13.90;57.30
16744;DHT22;71724;-33.900;151.182;2023-09-08T14:00:09;13.90;56.00
16744;DHT22;71724;-33.900;151.182;2023-09-08T14:02:36;13.80;57.00
16744;DHT22;71724;-33.900;151.182;2023-09-08T14:05:04;13.80;56.60
16744;DHT22;71724;-33.900;151.182;2023-09-08T14:07:31;13.80;56.50
16744;DHT22;71724;-33.900;151.182;2023-09-08T14:09:59;13.70;56.60
16744;DHT22;71724;-33.900;151.182;2023-09-08T14:12:28;13.70;56.30
16744;DHT22;71724;-33.900;151.182;2023-09-08T14:14:55;13.70;57.30
16744;DHT22;71724;-33.900;151.182;2023-09-08T14:17:22;13.70;57.00
16744;DHT22;71724;-33.900;151.182;2023-09-08T14:19:50;13.70;56.70
16744;DHT22;71724;-33.900;151.182;2023-09-08T14:22:17;13.70;56.60
16744;DHT22;71724;-33.900;151.182;2023-09-08T14:24:44;13.60;57.50
16744;DHT22;71724;-33.900;151.182;2023-09-08T14:27:12;13.50;56.40
16744;DHT22;71724;-33.900;151.182;2023-09-08T14:29:39;13.50;56.60
16744;DHT22;71724;-33.900;151.182;2023-09-08T14:32:06;13.50;57.60
16744;DHT22;71724;-33.900;151.182;2023-09-08T14:34:34;13.50;56.70
16744;DHT22;71724;-33.900;151.182;2023-09-08T14:37:01;13.50;57.70
16744;DHT22;71724;-33.900;151.182;2023-09-08T14:39:29;13.40;57.60
16744;DHT22;71724;-33.900;151.182;2023-09-08T14:41:56;13.40;57.60
16744;DHT22;71724;-33.900;151.182;2023-09-08T14:44:24;13.40;57.80
16744;DHT22;71724;-33.900;151.182;2023-09-08T14:46:51;13.40;57.80
16744;DHT22;71724;-33.900;151.182;2023-09-08T14:49:19;13.40;57.60
16744;DHT22;71724;-33.900;151.182;2023-09-08T14:51:46;13.40;58.40
16744;DHT22;71724;-33.900;151.182;2023-09-08T14:54:14;13.40;58.70
16744;DHT22;71724;-33.900;151.182;2023-09-08T14:56:41;13.40;57.80
16744;DHT22;71724;-33.900;151.182;2023-09-08T14:59:09;13.30;57.80
16744;DHT22;71724;-33.900;151.182;2023-09-08T15:01:36;13.40;58.50
16744;DHT22;71724;-33.900;151.182;2023-09-08T15:04:07;13.30;58.60
16744;DHT22;71724;-33.900;151.182;2023-09-08T15:06:34;13.40;58.70